Jamestown, Missouri
Current Conditions -  °F | °C
As of 7:54 AM on Sunday 23 Nov 2014 (Local Time) from KCOU Reporting Station
Light Rain Light Rain  
Wind Chill: 53°   Ceiling: 900
Heat Index: 53°   Visibility: 8mi
Dew Point: 51°   Wind: 10mph
Humidity: 93%   Direction: 140°SE
Pressure: 29.6"   Gusts: NA
Location:  38.77°N, 92.48°W
Report Text: KCOU 231354Z 14009KT 8SM -RA BKN009 BKN014 OVC038 12/11 A2960 RMK AO2 CIG 005V010 SLP021 P0010 T01170106 $
Loading
Personal Weather Stations






























Interactive Weather Map New forecast layout! Learn more

10-Day Weather Forecast

Advertisements
Track Severe Weather on mobile